Date,TemperatureHighF,TemperatureAvgF,TemperatureLowF,DewpointHighF,DewpointAvgF,DewpointLowF,HumidityHigh,HumidityAvg,HumidityLow,PressureMaxIn,PressureMinIn,WindSpeedMaxMPH,WindSpeedAvgMPH,GustSpeedMaxMPH,PrecipitationSumIn
2012-1-9,41.8,38.8,37.0,26.8,26.1,25.6,65,60,55,30.24,30.20,2,1,0,0.00
2012-1-10,40.9,39.3,36.6,25.1,24.9,24.6,62,56,53,29.89,29.86,0,0,0,0.00
2012-1-14,26.1,24.4,22.3,21.2,19.5,18.2,84,81,77,30.35,30.33,1,1,0,0.00
2012-1-15,54.1,45.0,26.4,31.8,28.6,21.4,81,54,41,30.33,29.95,9,6,17,0.00
2012-1-16,67.6,55.4,42.6,51.5,42.5,31.4,89,63,43,29.95,29.68,17,8,21,0.21
2012-1-17,42.6,27.4,16.2,40.2,20.0,10.5,93,74,56,30.49,29.71,16,9,24,0.01
2012-1-18,36.2,22.2,11.4,19.7,13.1,7.7,85,70,43,30.49,30.00,14,6,19,0.00
2012-1-19,36.0,27.7,17.2,22.9,15.9,7.5,75,61,50,30.18,29.96,13,7,16,0.00
2012-1-20,27.2,21.3,15.1,23.6,14.6,7.8,89,75,63,30.24,29.92,11,7,16,0.00
2012-1-21,27.8,21.8,15.2,23.4,14.8,7.2,84,74,63,30.32,29.96,10,5,16,0.00
2012-1-22,56.3,43.8,26.7,48.6,39.1,22.8,96,84,65,29.96,29.41,18,8,28,0.11
2012-1-23,45.7,37.6,26.9,38.8,28.3,22.5,85,70,51,30.16,29.53,16,8,23,0.00
2012-1-24,46.8,32.1,22.9,31.5,24.9,19.6,89,76,54,30.34,30.16,7,2,10,0.00
2012-1-25,40.6,37.9,36.0,37.1,35.0,33.1,90,89,87,30.08,30.00,7,4,10,0.00
2012-1-26,42.2,36.5,34.6,33.4,32.2,29.0,94,85,66,30.00,29.93,7,2,10,0.00
2012-1-27,42.3,34.8,26.0,34.4,28.9,22.7,94,80,60,30.22,29.94,10,3,16,0.18
2012-1-28,44.1,35.0,25.7,28.2,20.4,15.8,81,57,33,30.44,30.22,13,7,17,0.00
2012-1-29,48.9,38.3,29.5,27.5,18.8,15.2,65,46,26,30.36,30.20,11,5,15,0.00
2012-1-30,57.3,56.3,55.1,43.4,43.0,42.3,62,61,59,29.98,29.97,14,12,20,0.00
2012-1-31,64.2,56.2,44.2,53.7,46.4,32.8,81,70,55,30.08,29.88,16,8,22,0.00
2012-2-1,57.8,45.7,37.3,38.3,32.8,29.6,80,62,35,30.24,30.08,4,1,5,0.00
2012-2-2,63.2,49.2,37.2,35.9,29.5,25.3,73,50,24,30.35,30.23,7,4,11,0.00
2012-2-3,50.2,45.4,40.9,43.0,36.6,27.0,95,74,43,30.26,30.03,13,8,19,1.29
2012-2-4,46.7,42.6,36.6,45.1,41.3,35.6,97,95,89,30.26,30.01,9,5,15,0.07
2012-2-5,46.5,38.1,33.1,35.5,32.5,29.1,97,82,51,30.43,30.26,8,4,12,0.06
2012-2-6,50.2,36.3,25.4,35.8,29.0,24.2,97,78,45,30.40,30.27,6,2,13,0.01
2012-2-7,44.3,35.6,30.1,35.7,30.3,26.7,92,81,65,30.48,30.28,8,3,15,0.04
2012-2-8,34.0,32.4,30.0,30.1,27.1,22.2,92,81,64,30.56,30.47,7,3,9,0.01
2012-2-9,39.3,34.3,29.4,30.5,27.5,23.4,86,76,63,30.48,30.19,9,3,13,0.00
2012-2-10,37.8,29.4,14.0,34.3,20.1,2.8,90,69,46,30.52,30.09,15,9,22,0.00
2012-2-11,28.8,18.3,9.9,7.6,4.4,2.1,75,56,36,30.81,30.52,10,4,13,0.00
2012-2-12,37.3,24.1,6.6,13.6,5.0,0.7,81,47,22,30.75,30.29,5,2,6,0.00
2012-2-13,34.9,31.1,28.2,31.2,25.7,6.6,94,83,31,30.29,29.88,10,5,12,0.00
2012-2-14,45.4,36.7,32.7,36.1,31.9,29.4,95,83,67,30.03,29.88,6,3,8,0.11
2012-2-15,49.9,43.1,36.7,45.9,39.8,32.3,95,88,82,30.08,29.92,6,2,10,0.33
2012-2-16,51.2,39.2,29.0,40.3,32.2,26.0,95,78,42,30.36,30.08,4,2,8,0.00
2012-2-17,58.6,41.6,25.5,41.7,31.8,22.7,91,71,37,30.29,30.14,7,2,10,0.00
2012-2-18,47.7,38.5,31.4,31.9,26.2,22.4,81,62,40,30.28,30.17,7,2,8,0.00
2012-2-19,49.4,37.9,25.5,29.8,25.8,21.9,89,63,40,30.23,30.13,5,2,11,0.00
2012-2-22,61.9,50.7,41.3,38.1,36.2,34.3,77,60,39,29.57,29.50,5,1,7,0.00
2012-2-23,67.9,51.1,37.8,48.2,38.3,28.8,85,63,39,29.73,29.24,12,5,19,0.01
2012-2-24,46.2,37.9,29.2,30.4,26.1,17.8,89,64,37,30.29,29.73,12,6,16,0.00
2012-2-25,45.4,34.9,25.1,28.7,21.1,16.8,90,59,36,30.45,30.14,8,3,10,0.00
2012-2-26,62.0,50.3,40.8,35.4,28.4,21.7,55,43,31,30.21,30.03,25,11,30,0.00
2012-2-27,46.7,39.0,30.0,30.5,22.4,15.6,80,53,36,30.54,30.22,9,4,12,0.00
2012-2-28,64.2,49.9,40.3,54.1,33.9,20.9,91,55,44,30.42,29.79,10,6,16,0.14
2012-2-29,56.7,50.4,43.3,29.7,28.9,27.4,57,44,33,29.93,29.78,21,9,30,0.01
2012-3-1,73.3,52.3,31.3,35.2,31.3,26.1,85,50,21,29.95,29.57,15,5,19,0.00
2012-3-2,51.7,40.2,34.7,35.8,32.8,27.0,92,75,55,29.97,29.49,15,7,21,0.07
2012-3-3,43.2,34.1,29.5,26.7,19.8,14.6,70,57,31,30.08,29.97,11,4,16,0.00
2012-3-4,58.1,42.8,28.2,34.6,25.7,18.3,74,52,32,30.23,29.89,16,7,27,0.00
2012-3-5,57.2,42.5,23.8,27.7,23.2,18.4,87,52,25,30.44,30.12,15,5,18,0.00
2012-3-6,72.7,61.9,52.2,44.1,34.0,26.0,54,37,18,30.12,29.87,27,17,38,0.00
2012-3-7,70.1,63.0,44.2,55.4,50.1,41.5,90,63,52,30.02,29.86,25,14,34,0.19
2012-3-8,44.2,38.3,32.8,41.4,29.6,23.7,91,72,47,30.56,30.02,14,7,18,0.41
2012-3-9,57.2,44.8,33.7,32.7,25.6,20.1,66,48,32,30.64,30.49,7,2,10,0.00
2012-3-10,63.9,50.9,38.8,31.4,27.6,23.8,64,42,24,30.49,30.24,15,5,18,0.00
2012-3-11,56.0,50.9,45.1,54.2,42.6,27.1,95,76,45,30.25,29.90,10,5,15,0.52
2012-3-12,72.0,60.4,51.1,54.8,51.9,49.4,95,75,52,30.00,29.84,20,10,29,0.01
2012-3-13,82.0,65.6,50.1,57.2,49.6,43.2,92,62,26,30.10,29.96,11,4,18,0.00
2012-3-14,79.6,69.2,60.9,63.8,59.2,49.5,85,71,50,30.03,29.94,23,11,31,0.00
2012-3-15,75.6,70.6,65.8,63.6,62.4,61.0,85,76,64,30.04,29.99,5,2,7,0.00
2012-3-16,82.2,71.4,62.6,64.9,60.6,58.8,88,70,46,30.05,29.93,17,7,18,0.00
2012-3-17,79.6,69.0,62.0,63.5,59.9,56.7,84,74,55,30.00,29.90,14,6,20,0.00
2012-3-18,76.7,73.1,69.9,61.6,58.5,55.1,64,60,56,29.91,29.88,10,5,14,0.00
2012-3-19,77.9,68.2,56.9,62.4,58.5,54.9,96,73,53,29.88,29.69,19,8,25,0.86
2012-3-20,73.2,60.3,56.5,60.2,57.0,55.6,98,90,58,29.95,29.75,18,4,24,0.69
2012-3-21,66.6,61.0,54.4,60.0,57.5,52.5,98,89,74,29.96,29.81,12,7,20,0.60
2012-3-22,67.6,57.1,52.5,52.7,50.5,45.6,98,81,48,30.03,29.88,22,3,22,0.07
2012-3-23,59.3,53.4,50.2,52.4,49.2,45.3,96,86,71,29.99,29.89,9,4,14,0.88
2012-3-24,73.2,60.7,48.2,53.6,48.8,45.7,93,68,40,30.04,29.93,12,4,17,0.01
2012-3-25,77.2,64.1,49.2,59.1,52.2,46.4,91,67,42,30.13,30.04,3,0,7,0.00
2012-3-26,81.1,68.2,55.0,59.9,54.6,51.5,89,64,38,30.14,29.98,10,2,13,0.00
2012-3-27,80.1,71.6,63.2,60.7,57.3,54.8,74,61,46,30.02,29.89,18,9,23,0.00
2012-3-28,78.8,70.5,59.9,61.9,57.2,43.8,87,64,40,30.04,29.91,10,2,14,0.00
2012-3-29,79.2,67.4,58.6,61.6,56.5,43.9,90,70,41,30.01,29.74,11,4,14,0.26
2012-3-30,76.1,69.1,63.2,63.1,58.1,53.4,84,69,46,29.82,29.75,12,4,15,0.00
2012-4-2,87.4,76.8,66.4,56.2,53.6,49.7,69,47,28,29.75,29.68,6,1,9,0.00
2012-4-3,70.3,64.4,58.6,63.7,58.2,51.8,96,81,52,29.89,29.75,9,2,11,0.53
2012-4-4,58.6,57.0,55.9,57.5,52.5,51.1,96,85,78,29.87,29.75,7,3,10,0.17
2012-4-5,56.2,50.5,46.4,53.6,45.7,41.2,94,84,70,30.09,29.76,10,4,16,0.00
2012-4-6,62.4,50.5,39.2,43.1,38.5,32.5,92,65,41,30.26,30.09,6,2,10,0.00
2012-4-7,61.6,52.6,46.7,53.0,44.3,35.8,91,74,58,30.37,30.14,10,3,14,0.18
2012-4-8,67.6,53.3,37.3,46.4,36.5,27.0,95,60,24,30.45,30.24,4,1,7,0.00
2012-4-9,70.3,57.0,41.9,44.1,36.7,26.0,85,51,23,30.26,30.13,4,1,9,0.00
2012-4-10,61.3,51.9,44.1,42.8,30.4,24.2,70,45,28,30.30,30.16,7,3,12,0.00
2012-4-11,56.5,46.9,36.8,34.7,27.4,21.3,72,48,31,30.40,30.25,7,2,11,0.00
2012-4-12,60.5,50.2,37.9,47.1,36.2,27.6,80,60,40,30.27,30.05,8,2,12,0.01
2012-4-13,63.7,55.5,49.4,60.5,50.6,42.2,95,84,63,30.05,29.91,9,4,12,0.93
2012-4-14,77.2,68.2,59.9,64.6,61.1,56.8,96,79,63,29.94,29.64,15,7,21,0.47
2012-4-15,72.0,66.0,58.7,63.7,59.1,44.1,93,79,56,29.70,29.54,20,10,25,0.50
2012-4-16,66.1,56.7,48.8,46.1,41.9,38.9,87,59,40,30.27,29.65,16,6,29,0.00
2012-4-17,69.9,53.6,42.8,49.6,44.4,41.3,95,74,41,30.37,30.27,5,1,8,0.00
2012-4-19,77.4,71.5,62.0,57.3,52.1,48.3,80,52,36,29.77,29.71,11,7,12,0.00
2012-4-20,62.0,48.6,46.4,53.2,42.9,39.6,85,81,71,30.04,29.77,11,8,17,0.06
2012-5-13,74.5,68.6,57.7,60.0,53.5,49.4,78,59,46,30.29,30.18,6,3,19,0.01
2012-5-14,76.9,64.2,50.1,55.0,50.0,46.2,94,64,36,30.25,30.12,5,1,7,0.00
2012-5-15,82.8,69.2,54.5,56.6,52.2,47.1,91,59,31,30.15,30.04,7,3,12,0.00
2012-5-16,74.4,66.8,58.2,48.7,46.6,44.2,70,50,34,30.11,30.08,3,1,4,0.00
2012-5-17,79.8,67.9,52.8,54.4,49.2,45.3,84,54,31,30.14,30.00,6,3,12,0.00
2012-5-18,86.0,73.7,60.9,60.8,54.4,47.3,62,52,38,30.02,29.90,10,4,14,0.00
2012-5-19,83.9,76.3,66.6,64.0,60.3,57.3,74,59,44,30.02,29.91,13,5,21,0.00
2012-5-20,80.9,73.6,61.1,65.2,59.6,52.7,74,62,50,30.22,29.99,9,4,13,0.00
2012-5-21,72.7,63.2,53.2,52.9,44.8,39.5,84,54,31,30.32,30.19,10,4,14,0.00
2012-5-22,78.4,64.9,46.5,52.1,47.2,42.0,90,57,30,30.20,29.91,6,2,8,0.00
2012-5-23,86.9,73.9,57.6,62.6,54.4,47.3,72,51,42,29.91,29.63,9,5,15,0.00
2012-5-24,84.2,77.3,70.7,68.4,62.9,53.2,77,61,48,29.82,29.56,14,8,23,0.00
2012-5-25,89.3,76.9,63.8,73.2,65.9,-99.9,91,72,52,30.05,29.80,11,5,15,0.13
2012-5-26,90.3,80.9,72.0,74.4,69.9,65.7,82,70,58,30.05,29.94,10,5,16,0.00
2012-5-27,89.9,80.5,70.4,67.0,62.0,56.6,79,56,34,30.00,29.82,16,7,20,0.00
2012-5-28,89.7,80.3,70.1,69.3,63.9,57.2,78,58,47,29.90,29.80,17,7,24,0.00
2012-5-29,85.8,72.9,64.4,63.8,58.6,51.4,82,62,37,29.96,29.88,5,3,10,0.00
2012-5-30,80.4,78.8,75.5,56.5,55.0,53.3,49,44,40,29.89,29.83,7,5,11,0.09
2012-5-31,63.3,56.2,52.8,52.6,51.7,50.5,93,86,68,30.05,29.93,9,5,14,0.17
2012-6-1,66.4,57.9,50.0,50.8,47.8,44.2,94,71,46,30.13,30.00,8,4,10,0.03
2012-6-2,80.9,66.4,51.5,57.7,51.9,48.0,88,63,36,30.03,29.90,9,4,15,0.00
2012-6-3,75.4,68.2,58.9,67.3,61.5,51.8,90,79,63,29.95,29.86,9,2,11,0.00
2012-6-4,91.9,77.3,62.7,70.4,64.7,59.7,96,69,36,29.93,29.83,10,5,14,0.00
2012-6-5,83.4,74.3,61.3,63.3,56.7,52.5,91,58,36,30.02,29.92,8,4,13,0.00
2012-6-6,81.2,72.2,63.2,58.1,54.8,51.8,73,56,39,30.11,29.99,8,3,13,0.00
2012-6-7,80.9,70.5,58.5,53.4,50.6,47.6,72,51,32,30.20,30.10,8,3,11,0.00
2012-6-8,85.0,72.0,54.5,57.9,52.5,48.1,91,55,30,30.17,29.98,5,2,10,0.00
2012-6-9,89.9,77.8,63.5,62.9,58.3,52.3,72,53,34,30.00,29.80,11,5,19,0.00
2012-6-10,84.4,75.5,70.6,68.2,63.2,59.6,77,66,57,29.87,29.83,7,5,12,0.00
2012-6-12,79.7,72.3,63.8,51.7,50.0,49.0,61,46,35,30.20,30.14,5,3,7,0.05
2012-6-13,84.6,71.3,53.2,57.0,52.8,47.9,91,55,34,30.20,30.03,8,3,11,0.00
2012-6-14,89.6,76.2,62.3,62.0,57.3,52.9,80,55,30,30.08,29.91,10,4,14,0.00
2012-6-15,89.5,79.9,72.7,68.0,61.9,55.8,72,55,40,30.01,29.94,15,6,22,0.00
2012-6-16,92.6,79.0,70.3,70.8,67.9,65.0,94,71,45,30.09,29.93,17,6,27,0.11
2012-6-17,88.3,83.4,78.9,70.9,69.4,67.9,69,63,54,29.83,29.80,10,6,11,0.01
2012-6-18,91.1,82.9,75.0,70.1,66.5,61.1,75,59,41,29.84,29.76,17,9,23,0.01
2012-6-19,90.2,82.1,74.2,70.4,67.0,63.0,74,61,47,29.95,29.84,14,8,23,0.08
2012-6-20,90.5,82.5,75.4,71.0,67.7,64.2,78,62,43,30.01,29.92,16,8,24,0.00
2012-6-21,82.7,74.3,66.5,68.5,64.3,58.2,95,73,45,30.12,29.96,10,4,16,0.49
2012-6-22,84.9,75.1,61.8,63.4,59.8,53.5,95,62,38,30.14,30.01,6,2,9,0.00
2012-6-23,91.1,78.2,66.3,69.2,62.7,55.9,71,60,45,30.06,29.90,11,3,14,0.00
2012-6-24,97.0,85.4,74.4,71.3,66.4,58.5,73,54,38,30.00,29.91,11,5,18,0.00
2012-6-25,93.0,83.6,72.6,75.6,70.0,61.3,89,65,50,29.96,29.90,10,4,15,0.00
2012-6-26,87.4,73.6,67.1,61.5,53.7,49.8,58,50,41,30.00,29.95,7,4,10,0.00
2012-6-27,98.6,89.7,83.1,68.2,67.7,65.9,60,49,35,29.92,29.88,12,6,17,0.00
2012-6-28,101.9,88.5,76.2,68.0,64.7,60.0,67,47,29,30.00,29.91,11,6,16,0.00
2012-6-29,99.7,87.5,74.8,67.1,64.1,59.9,70,48,28,29.98,29.83,12,6,17,0.00
2012-6-30,99.2,86.4,75.0,69.7,65.7,62.5,68,52,35,29.91,29.84,12,6,16,0.00
2012-7-1,98.5,86.5,74.0,68.5,64.9,55.5,77,51,24,30.03,29.90,11,4,17,0.00
2012-7-2,97.4,85.6,73.9,72.1,67.8,63.9,80,58,35,30.05,29.94,12,5,16,0.00
2012-7-3,98.1,86.9,75.9,71.7,68.6,66.0,76,56,38,30.01,29.88,12,6,18,0.00
2012-7-4,99.7,87.6,76.0,67.2,63.4,59.5,61,46,29,30.01,29.91,12,6,18,0.00
2012-7-5,102.2,88.7,76.4,68.1,64.9,62.2,66,48,28,30.06,29.94,9,4,12,0.00
2012-7-6,104.9,90.2,73.7,68.2,64.7,57.7,80,47,23,30.06,29.95,7,2,11,0.00
2012-7-7,105.2,87.8,75.7,69.0,66.3,61.5,75,52,25,30.05,29.95,11,3,11,0.00
2012-7-8,93.5,82.9,74.8,73.0,68.1,62.7,79,63,37,30.06,29.99,9,4,14,0.00
2012-7-9,91.2,81.2,73.1,71.1,63.7,50.3,88,60,25,30.10,30.01,8,3,13,0.00
2012-7-10,93.8,78.6,64.9,62.4,59.8,56.9,84,56,31,30.11,30.02,7,2,12,0.00
2012-7-11,90.4,84.9,80.6,59.0,58.1,56.7,47,41,33,30.06,30.02,7,4,15,0.00
2012-7-12,97.0,85.0,70.9,67.3,60.0,53.1,72,46,24,30.07,29.98,8,2,13,0.00
2012-7-13,96.9,79.6,72.1,70.0,66.0,61.0,88,66,33,30.10,30.02,9,3,14,0.22
2012-7-14,94.8,81.0,66.7,71.6,67.3,63.8,95,66,37,30.12,30.01,7,2,12,0.00
2012-7-15,95.6,83.2,69.0,69.4,65.4,59.2,89,59,31,30.14,30.00,6,2,11,0.00
2012-7-16,95.2,82.6,74.9,71.7,69.4,66.7,83,66,40,30.05,29.98,9,4,14,0.00
2012-7-17,99.0,90.6,83.0,66.6,65.1,63.6,57,44,32,29.92,29.86,9,3,12,0.00
2012-7-18,103.6,90.9,79.0,69.3,65.5,61.7,64,45,27,29.99,29.85,10,6,16,0.00
2012-7-19,101.6,89.4,76.7,72.5,65.6,61.3,80,47,30,30.02,29.90,10,5,15,0.02
2012-7-20,89.4,81.1,70.4,68.7,65.9,62.8,86,61,43,30.10,30.01,9,5,14,0.00
2012-7-21,97.7,83.9,66.8,67.1,62.7,58.2,89,53,28,30.15,30.03,6,3,10,0.00
2012-7-22,102.7,88.5,74.2,64.9,59.7,54.5,61,40,21,30.12,30.01,8,3,13,0.00
2012-7-23,103.7,90.9,78.6,71.2,65.1,59.8,67,45,25,30.11,29.97,11,5,14,0.00
2012-7-24,102.6,91.0,81.2,70.2,66.1,61.6,63,46,28,30.04,29.87,11,6,16,0.00
2012-7-25,104.7,92.8,81.6,68.8,65.7,62.0,60,43,26,29.90,29.71,13,8,22,0.00
2012-7-26,91.1,82.4,73.2,76.6,70.3,62.6,96,69,43,29.93,29.72,12,3,18,0.42
2012-7-27,94.7,82.6,72.2,71.4,64.2,56.4,82,57,31,30.08,29.92,9,4,17,0.00
2012-7-28,94.8,80.6,66.9,63.6,60.3,51.9,83,55,24,30.18,30.07,6,3,9,0.00
2012-7-29,104.8,95.4,83.6,68.1,66.1,62.8,59,40,27,30.00,29.84,8,4,11,0.00
2012-7-30,93.9,84.2,74.4,71.8,69.3,66.8,83,62,43,29.96,29.84,6,2,10,0.00
2012-7-31,101.8,87.6,72.8,71.9,65.8,54.4,90,54,21,30.00,29.90,7,2,8,0.00
2012-8-1,100.6,89.7,78.3,68.6,65.2,62.3,70,46,30,29.95,29.81,9,4,12,0.00
2012-8-2,95.6,84.2,76.7,70.6,68.1,65.3,74,60,39,29.89,29.73,7,3,11,0.00
2012-8-3,99.4,85.4,71.0,72.3,68.5,64.4,91,60,34,29.87,29.80,6,2,9,0.00
2012-8-4,95.3,86.5,79.5,74.2,69.9,67.1,72,58,42,30.03,29.80,9,4,13,0.01
2012-8-5,90.3,79.9,71.5,68.4,61.8,51.9,79,58,28,30.23,30.04,9,4,12,0.00
2012-8-6,95.3,85.8,74.0,54.4,49.9,43.6,46,31,17,30.06,30.03,8,2,9,0.00
2012-8-7,103.2,85.4,64.8,60.8,54.0,47.7,73,39,17,30.06,29.94,6,2,11,0.00
2012-8-8,95.5,82.3,68.9,66.9,62.2,55.5,92,52,37,30.05,29.87,13,4,20,0.28
2012-8-9,89.8,76.9,65.5,69.8,65.1,61.7,95,70,45,29.99,29.91,11,4,15,0.00
2012-8-10,82.4,71.2,61.0,62.0,56.7,52.0,89,63,37,30.09,29.98,9,4,15,0.00
2012-8-11,87.2,81.8,62.2,55.1,51.7,49.0,77,37,29,30.10,30.00,6,3,8,0.00
2012-8-12,90.8,82.7,73.3,65.8,62.5,59.5,77,52,36,29.98,29.83,8,4,14,0.04
2012-8-13,74.9,70.0,64.4,64.7,61.3,57.7,86,74,60,30.09,29.90,10,5,16,0.00
2012-8-14,73.3,64.3,57.3,63.1,58.4,54.3,95,82,64,30.15,30.02,8,2,10,0.00
2012-8-15,95.3,76.1,56.1,64.4,60.4,53.8,96,64,34,30.04,29.86,9,3,16,0.00
2012-8-16,87.9,78.3,65.7,71.2,62.7,52.4,73,59,45,30.10,29.89,12,6,19,0.00
2012-8-17,82.3,70.8,57.5,55.6,48.5,41.0,84,49,24,30.17,30.04,7,3,11,0.00
2012-8-18,86.3,69.9,49.0,50.8,44.4,36.8,86,46,19,30.09,29.93,6,2,9,0.00
2012-8-19,82.0,72.0,63.3,52.0,48.5,44.8,65,45,29,30.07,29.99,9,4,14,0.00
2012-8-20,86.3,71.0,52.7,54.0,48.9,46.0,83,50,26,30.11,30.00,7,2,14,0.00
2012-8-21,94.3,77.7,60.5,52.1,47.8,42.9,68,39,18,30.11,30.03,7,2,12,0.00
2012-8-22,97.7,80.8,61.9,55.5,49.3,44.3,64,36,17,30.12,30.01,10,3,11,0.00
2012-8-23,95.8,82.4,67.8,56.5,51.3,43.1,57,37,17,30.12,29.99,14,5,20,0.00
2012-8-24,91.5,81.7,71.0,55.8,52.9,49.9,53,38,25,30.07,29.94,11,4,16,0.00
2012-8-25,86.0,77.6,73.0,72.7,64.2,54.1,91,66,41,29.98,29.92,10,4,12,0.24
2012-8-26,82.0,74.9,69.7,74.5,71.3,68.0,96,89,74,30.06,29.94,12,4,14,0.54
2012-8-27,91.5,78.1,68.9,72.3,64.9,54.8,97,69,30,30.20,30.06,8,3,12,0.01
2012-8-28,94.0,78.8,61.5,63.9,59.8,55.4,93,57,28,30.21,30.03,6,2,10,0.00
2012-8-29,95.3,81.5,65.9,64.1,58.2,52.2,87,49,25,30.10,29.95,6,2,10,0.00
2012-8-30,98.2,82.5,68.6,62.0,56.7,47.2,73,46,18,30.05,29.92,7,3,10,0.00
2012-8-31,74.7,73.9,73.5,73.2,72.6,72.3,96,96,95,29.81,29.79,7,4,10,1.32
2012-9-1,75.5,72.6,71.0,73.5,71.2,69.5,97,96,92,29.95,29.77,8,4,15,0.31
2012-9-2,85.4,70.6,68.6,72.3,67.1,64.7,95,89,64,29.99,29.93,6,4,10,0.00
2012-9-3,93.9,88.2,79.9,71.6,69.2,66.4,73,55,41,29.96,29.89,5,3,8,0.00
2012-9-4,95.0,82.2,71.7,73.1,70.8,66.6,95,71,42,30.04,29.83,10,4,19,0.62
2012-9-5,93.2,81.4,73.2,72.7,69.8,65.4,88,70,42,29.92,29.82,10,2,13,0.05
2012-9-6,88.9,79.0,71.9,71.9,68.1,61.5,92,71,54,30.01,29.89,8,4,13,0.00
2012-9-7,93.3,74.9,60.7,71.3,64.9,57.4,91,73,40,30.08,29.79,17,7,37,0.28
2012-9-8,75.1,64.4,53.9,57.6,51.4,48.0,92,65,41,30.19,30.08,10,4,16,0.07
2012-9-9,74.2,64.7,55.4,53.4,50.9,48.8,85,63,42,30.24,30.05,8,4,14,0.00
2012-9-10,81.3,66.3,51.5,56.7,52.7,48.7,94,65,37,30.28,30.12,7,2,11,0.00
2012-9-11,89.7,74.5,61.5,62.3,57.2,53.8,79,58,31,30.17,30.04,10,4,13,0.00
2012-9-12,88.0,76.3,65.8,62.8,59.1,54.9,78,57,35,30.17,30.07,10,4,13,0.00
2012-9-13,71.0,62.9,52.7,60.3,55.4,48.9,89,77,66,30.44,30.15,11,6,17,0.01
2012-9-14,66.3,56.8,51.4,52.8,51.3,48.7,95,83,60,30.46,30.38,7,5,13,0.19
2012-9-15,67.1,63.9,61.9,57.4,56.0,55.2,80,76,70,30.26,30.21,4,3,8,0.00
2012-9-16,77.0,70.3,64.0,64.7,63.2,61.5,92,79,63,30.06,30.03,5,2,7,0.00
2012-9-17,78.4,67.2,58.1,66.0,60.7,48.3,97,81,60,30.06,29.87,12,3,17,0.00
2012-9-18,63.7,53.6,49.2,49.4,45.4,38.9,93,75,40,30.16,30.05,5,2,7,0.00
2012-9-19,79.4,64.2,48.8,52.9,47.5,40.9,81,57,38,30.16,29.97,16,7,21,0.00
2012-9-20,77.5,65.8,53.9,54.7,46.5,34.1,93,55,22,30.10,30.00,8,2,16,0.00
2012-9-21,81.8,68.5,55.5,61.6,46.8,39.4,78,49,26,30.07,29.86,12,5,26,0.00
2012-9-22,66.3,55.0,45.3,43.2,40.2,32.0,73,59,30,30.34,30.02,9,3,17,0.00
2012-9-23,67.4,52.1,35.9,43.9,36.7,33.3,91,60,30,30.45,30.32,4,1,8,0.00
2012-9-24,78.0,62.2,47.5,57.4,47.6,37.7,73,60,44,30.34,29.91,9,4,13,0.00
2012-9-25,83.5,74.3,66.3,67.7,63.8,56.2,89,70,55,30.02,29.84,12,5,17,0.07
2012-9-26,76.0,67.6,62.5,65.5,62.4,60.6,96,84,62,30.16,29.88,6,2,9,0.34
2012-9-27,72.9,66.6,63.4,64.2,62.7,60.6,97,88,70,30.23,30.15,5,2,8,0.03
2012-9-28,71.5,64.3,56.7,63.0,55.7,48.8,96,76,45,30.25,30.16,7,3,12,0.02
2012-9-29,73.0,55.7,46.8,51.9,48.0,45.0,96,78,42,30.25,30.10,5,1,7,0.00
2012-9-30,77.9,66.8,59.0,55.8,54.1,49.8,86,66,38,29.95,29.94,5,1,7,0.00
2012-10-1,73.9,63.7,53.3,54.9,50.2,46.6,93,65,41,29.94,29.85,8,3,12,0.00
2012-10-2,74.1,59.9,49.4,53.1,48.8,43.1,87,69,43,30.00,29.91,6,2,10,0.00
2012-10-3,72.5,63.7,61.5,54.3,50.9,48.5,77,64,46,30.08,30.01,4,2,6,0.00
2012-10-4,70.2,59.7,47.2,57.5,50.9,42.2,92,73,54,30.33,30.07,12,6,17,0.10
2012-10-5,49.0,45.1,36.2,45.5,40.6,33.3,94,84,64,30.39,30.28,10,4,15,0.40
2012-10-6,46.5,41.5,33.4,36.2,32.9,29.4,94,73,53,30.44,30.37,7,3,11,0.00
2012-10-7,54.8,43.9,32.1,34.4,31.3,28.2,93,64,37,30.44,30.27,5,2,9,0.00
2012-10-8,61.0,48.1,37.2,38.4,34.9,31.1,81,62,39,30.28,30.11,14,6,20,0.00
2012-10-9,68.0,53.7,42.6,54.2,44.9,38.3,93,73,51,30.20,29.98,13,6,20,0.02
2012-10-10,59.6,48.3,34.8,40.2,33.7,29.2,88,60,34,30.40,30.20,5,2,7,0.00
2012-10-11,63.1,53.9,41.8,53.2,44.5,32.4,80,71,61,30.28,30.16,7,3,12,0.00
2012-10-12,62.7,56.0,50.0,54.5,46.4,39.3,91,71,60,30.42,30.14,10,5,15,0.00
2012-10-13,70.3,64.2,57.4,65.7,61.9,54.5,95,92,82,30.17,29.76,12,5,18,1.12
2012-10-14,68.7,62.9,52.8,62.3,54.0,43.7,95,74,45,30.06,29.64,15,8,20,0.19
2012-10-15,74.1,59.4,45.2,49.9,46.3,42.7,93,65,38,30.11,29.95,4,2,7,0.00
2012-10-16,79.6,67.7,57.7,52.7,49.2,44.3,74,54,32,29.95,29.62,19,9,28,0.00
2012-10-17,65.3,59.9,52.8,61.2,50.7,36.0,95,72,52,29.71,29.48,15,5,22,0.15
2012-10-18,58.6,52.4,46.2,39.4,33.7,30.5,65,50,36,29.75,29.69,16,9,25,0.00
2012-10-19,51.2,49.0,46.5,43.5,41.9,39.2,83,76,65,29.93,29.71,13,7,22,0.00
2012-10-20,69.4,48.0,40.4,46.0,41.7,37.8,95,81,39,30.00,29.86,4,1,8,0.00
2012-10-21,77.1,73.9,70.8,66.1,65.4,64.3,81,75,67,29.91,29.86,7,3,9,0.00
2012-10-22,80.4,73.3,68.5,68.8,66.4,64.0,88,79,66,29.93,29.85,14,6,20,0.00
2012-10-23,77.3,70.1,62.6,67.9,64.9,60.7,95,84,72,29.96,29.83,17,8,23,2.50
2012-10-24,83.3,74.2,67.2,68.5,64.8,62.2,85,73,59,29.94,29.81,16,8,25,0.00
2012-10-25,72.5,56.6,41.6,65.6,50.6,33.6,92,80,67,30.35,29.76,16,9,21,0.07
2012-10-26,46.4,40.9,35.5,34.0,30.9,28.4,80,68,57,30.54,30.35,11,7,19,0.00
2012-10-27,44.8,36.7,28.2,30.7,28.7,25.6,92,74,54,30.52,30.37,8,2,11,0.00
2012-10-28,49.4,38.9,28.5,32.5,29.0,25.9,93,69,45,30.47,30.37,7,2,11,0.00
2012-10-29,52.1,40.7,29.9,35.4,31.2,25.8,90,70,46,30.47,30.26,5,1,9,0.00
2012-10-30,54.5,42.9,30.4,34.2,28.8,25.8,92,61,34,30.26,30.09,8,1,10,0.00
2012-10-31,57.8,46.5,36.9,36.1,32.0,28.0,82,58,38,30.17,30.09,7,2,11,0.00
2012-11-1,69.6,53.1,37.9,47.4,40.5,32.9,85,65,43,30.13,29.95,12,3,14,0.00
2012-11-2,56.1,47.1,42.5,42.7,38.2,35.5,82,72,47,30.11,30.04,8,3,13,0.00
2012-11-3,55.4,47.3,37.9,39.3,37.4,34.7,88,70,54,30.30,30.22,8,2,12,0.00
2012-11-4,57.3,44.6,32.1,43.0,36.7,30.3,95,76,52,30.36,30.17,8,2,11,0.00
2012-11-5,46.4,44.4,42.7,43.9,42.0,38.9,96,91,76,30.19,30.05,7,3,10,0.15
2012-11-6,50.1,49.0,46.5,36.0,35.5,34.8,64,60,57,30.13,30.11,7,5,10,0.01
2012-11-7,51.0,43.8,38.1,37.5,34.6,32.8,82,70,56,30.27,30.13,9,4,13,0.00
2012-11-11,38.3,33.4,30.0,36.2,30.0,23.9,93,87,78,30.32,29.98,10,7,14,1.29
2012-11-12,44.9,34.7,25.7,27.9,23.7,21.3,83,66,43,30.57,30.31,13,5,22,0.00
2012-11-13,54.9,41.3,27.6,34.5,28.7,22.9,85,62,42,30.61,30.47,9,2,14,0.00
2012-11-14,55.9,44.9,35.9,34.4,28.5,25.2,71,54,32,30.55,30.41,8,2,12,0.00
2012-11-15,55.7,45.0,36.0,36.5,31.7,24.8,85,61,44,30.49,30.40,6,2,10,0.00
2012-11-16,59.8,45.2,32.4,41.3,35.7,30.0,94,72,46,30.56,30.49,4,1,5,0.00
2012-11-17,62.6,49.2,38.0,35.4,31.9,29.1,81,54,31,30.55,30.41,7,3,10,0.00
2012-11-18,65.4,53.0,42.6,35.1,30.7,25.3,55,43,29,30.43,30.28,11,4,14,0.00
2012-11-19,61.7,53.5,48.1,50.6,45.8,34.7,89,76,48,30.30,30.16,12,6,17,0.06
2012-11-20,61.8,50.4,40.3,47.6,44.3,38.7,95,81,58,30.32,30.18,8,3,10,0.00
2012-11-21,68.1,52.7,37.5,49.6,41.4,35.9,96,69,39,30.35,30.13,10,4,15,0.00
2012-11-22,69.8,59.3,46.9,53.0,45.0,36.9,73,59,51,30.31,29.96,20,10,26,0.00
2012-11-23,47.3,36.6,26.6,36.4,23.0,15.7,79,58,41,30.54,30.30,16,7,21,0.00
2012-11-24,44.8,32.6,21.0,26.4,19.3,14.6,79,59,39,30.53,30.06,13,4,17,0.00
2012-11-25,54.9,45.8,37.6,33.7,29.7,24.7,75,54,41,30.15,30.01,14,5,21,0.00
2012-11-26,42.2,34.7,25.2,30.3,26.3,19.9,81,72,55,30.57,30.15,12,6,17,0.00
2012-11-27,31.9,21.4,15.8,19.6,15.6,12.4,87,78,55,30.62,30.55,4,1,6,0.00
2012-11-28,51.5,45.2,40.3,32.9,31.1,30.2,68,58,47,30.48,30.33,10,3,14,0.00
2012-11-29,65.0,49.0,38.8,45.3,35.8,29.9,72,61,41,30.34,30.10,13,7,18,0.00
2012-11-30,55.4,52.0,48.1,46.9,45.9,43.7,86,80,72,30.14,30.11,3,1,5,0.00
2012-12-1,68.5,62.4,51.7,59.1,55.4,46.3,86,78,69,30.13,29.91,13,6,17,0.00
2012-12-2,69.3,60.6,50.4,59.2,54.8,48.6,95,82,61,30.10,29.96,9,3,13,0.00
2012-12-3,72.4,64.6,53.1,60.7,56.8,47.6,89,76,61,30.08,29.84,22,11,33,0.15
2012-12-4,59.1,49.1,37.9,47.0,36.5,30.0,79,64,35,30.41,30.07,7,3,8,0.00
2012-12-5,59.9,46.4,35.3,38.7,33.4,30.0,84,62,38,30.46,30.18,5,2,9,0.00
2012-12-6,55.5,48.6,41.7,45.5,39.5,31.5,83,71,62,30.18,29.97,8,3,9,0.00
2012-12-7,50.7,47.6,44.6,45.3,43.4,41.6,90,86,79,30.01,29.92,7,2,8,0.00
2012-12-8,44.6,44.2,43.9,41.8,41.5,41.2,91,90,90,30.02,29.99,6,5,6,0.00
2012-12-9,42.1,29.0,23.6,37.3,20.8,15.2,83,71,67,30.15,30.00,13,10,20,0.00
2012-12-10,30.7,23.8,20.2,21.2,16.6,13.9,82,74,66,30.21,30.12,12,5,21,0.00
2012-12-11,42.4,30.2,19.6,23.3,19.4,15.1,84,65,46,30.32,30.18,9,5,11,0.00
2012-12-12,50.0,38.3,28.7,23.8,20.4,17.4,75,51,28,30.40,30.28,15,6,18,0.00
2012-12-13,57.9,45.2,35.8,28.6,24.4,19.1,57,45,31,30.34,30.20,17,7,24,0.00
2012-12-14,53.9,44.3,39.9,40.1,29.8,26.0,90,57,42,30.26,29.88,10,5,13,0.34
2012-12-15,59.1,50.5,42.7,47.5,44.7,40.1,92,81,64,29.89,29.65,19,10,31,0.07
2012-12-16,43.5,38.5,32.6,40.5,37.0,31.1,97,94,90,29.87,29.78,5,2,6,0.00
2012-12-17,41.3,36.9,34.0,35.8,33.7,32.2,94,88,79,29.88,29.83,7,4,9,0.00
2012-12-18,57.8,44.7,34.1,39.8,35.0,31.3,94,71,42,30.02,29.76,18,6,26,0.01
2012-12-19,43.8,37.9,34.9,38.1,33.1,31.1,88,83,75,30.03,29.74,11,6,18,0.01
2012-12-20,27.7,25.7,23.3,25.4,21.2,17.5,92,83,78,30.32,29.92,21,12,34,0.05
2012-12-21,36.7,26.9,20.2,21.1,17.2,14.4,85,68,47,30.50,30.32,8,3,12,0.00
2012-12-22,57.4,39.8,21.1,30.6,23.4,17.2,85,55,33,30.41,30.05,10,5,13,0.00
2012-12-23,43.0,34.4,26.0,31.9,26.8,22.3,91,74,49,30.08,29.98,7,3,8,0.00
2012-12-24,27.9,22.2,18.6,24.8,18.9,14.0,90,87,81,30.31,30.01,9,5,12,0.00
2012-12-25,26.2,22.7,18.5,21.5,18.0,13.0,89,82,73,30.42,30.29,14,8,21,0.00
2012-12-26,26.5,20.4,16.2,19.9,15.2,11.4,87,80,73,30.38,30.29,13,6,17,0.00
2012-12-27,37.5,28.0,16.7,26.0,21.8,14.0,91,78,61,30.34,30.10,9,4,14,0.00
2012-12-28,33.6,30.5,25.6,27.2,25.0,19.7,83,80,77,30.16,30.05,9,6,15,0.00
2012-12-29,32.8,26.1,21.8,20.3,18.3,16.6,86,73,57,30.46,30.16,10,6,21,0.00
2012-12-30,45.1,34.8,24.7,27.2,20.8,17.4,76,58,40,30.51,30.28,16,9,22,0.00
2012-12-31,38.5,33.3,25.0,34.0,28.0,19.4,95,83,46,30.32,30.17,14,5,19,0.17
2013-1-1,25.1,18.6,9.6,23.3,14.4,7.0,93,84,69,30.44,30.27,8,3,10,0.00